sensor_id;sensor_type;location;lat;lon;timestamp;pressure;altitude;pressure_sealevel;temperature;humidity
69879;BME280;57161;43.136;24.706;2022-11-11T00:00:00;100402.69;;;8.91;79.40
69879;BME280;57161;43.136;24.706;2022-11-11T00:02:26;100390.78;;;8.91;79.03
69879;BME280;57161;43.136;24.706;2022-11-11T00:04:51;100392.84;;;8.96;78.78
69879;BME280;57161;43.136;24.706;2022-11-11T00:07:17;100396.84;;;8.89;78.97
69879;BME280;57161;43.136;24.706;2022-11-11T00:09:42;100401.91;;;8.85;79.08
69879;BME280;57161;43.136;24.706;2022-11-11T00:12:08;100393.78;;;8.76;79.91
69879;BME280;57161;43.136;24.706;2022-11-11T00:14:33;100389.25;;;8.84;79.74
69879;BME280;57161;43.136;24.706;2022-11-11T00:16:59;100391.53;;;8.86;79.88
69879;BME280;57161;43.136;24.706;2022-11-11T00:19:43;100394.06;;;8.84;79.90
69879;BME280;57161;43.136;24.706;2022-11-11T00:22:27;100378.56;;;8.77;80.04
69879;BME280;57161;43.136;24.706;2022-11-11T00:25:21;100395.81;;;8.76;80.21
69879;BME280;57161;43.136;24.706;2022-11-11T00:27:47;100393.28;;;8.72;80.14
69879;BME280;57161;43.136;24.706;2022-11-11T00:30:12;100395.28;;;8.66;80.18
69879;BME280;57161;43.136;24.706;2022-11-11T00:32:38;100387.91;;;8.57;80.50
69879;BME280;57161;43.136;24.706;2022-11-11T00:35:04;100391.19;;;8.56;80.40
69879;BME280;57161;43.136;24.706;2022-11-11T00:37:47;100370.13;;;8.38;80.68
69879;BME280;57161;43.136;24.706;2022-11-11T00:40:14;100376.97;;;8.42;80.59
69879;BME280;57161;43.136;24.706;2022-11-11T00:42:39;100374.16;;;8.42;80.72
69879;BME280;57161;43.136;24.706;2022-11-11T00:45:06;100364.25;;;8.30;80.69
69879;BME280;57161;43.136;24.706;2022-11-11T00:47:32;100386.06;;;8.37;80.85
69879;BME280;57161;43.136;24.706;2022-11-11T00:50:19;100382.03;;;8.44;80.43
69879;BME280;57161;43.136;24.706;2022-11-11T00:53:09;100377.47;;;8.41;80.53
69879;BME280;57161;43.136;24.706;2022-11-11T00:55:35;100360.97;;;8.32;80.42
69879;BME280;57161;43.136;24.706;2022-11-11T00:58:00;100365.31;;;8.38;80.70
69879;BME280;57161;43.136;24.706;2022-11-11T01:00:26;100377.75;;;8.49;80.76
69879;BME280;57161;43.136;24.706;2022-11-11T01:02:51;100360.28;;;8.48;80.90
69879;BME280;57161;43.136;24.706;2022-11-11T01:05:17;100355.97;;;8.47;80.87
69879;BME280;57161;43.136;24.706;2022-11-11T01:07:42;100367.63;;;8.57;80.86
69879;BME280;57161;43.136;24.706;2022-11-11T01:10:08;100365.34;;;8.55;80.39
69879;BME280;57161;43.136;24.706;2022-11-11T01:12:33;100363.59;;;8.58;80.49
69879;BME280;57161;43.136;24.706;2022-11-11T01:14:59;100354.72;;;8.59;80.24
69879;BME280;57161;43.136;24.706;2022-11-11T01:17:24;100360.03;;;8.57;80.08
69879;BME280;57161;43.136;24.706;2022-11-11T01:19:50;100356.25;;;8.49;80.00
69879;BME280;57161;43.136;24.706;2022-11-11T01:22:15;100367.63;;;8.51;80.18
69879;BME280;57161;43.136;24.706;2022-11-11T01:24:41;100364.84;;;8.51;80.35
69879;BME280;57161;43.136;24.706;2022-11-11T01:27:06;100373.47;;;8.53;80.32
69879;BME280;57161;43.136;24.706;2022-11-11T01:29:31;100371.69;;;8.50;80.19
69879;BME280;57161;43.136;24.706;2022-11-11T01:31:57;100354.16;;;8.38;80.40
69879;BME280;57161;43.136;24.706;2022-11-11T01:34:22;100359.22;;;8.34;80.83
69879;BME280;57161;43.136;24.706;2022-11-11T01:36:48;100361.50;;;8.41;81.11
69879;BME280;57161;43.136;24.706;2022-11-11T01:39:13;100363.31;;;8.50;81.37
69879;BME280;57161;43.136;24.706;2022-11-11T01:41:39;100357.53;;;8.65;81.47
69879;BME280;57161;43.136;24.706;2022-11-11T01:46:49;100371.50;;;8.76;82.05
69879;BME280;57161;43.136;24.706;2022-11-11T01:55:03;100368.72;;;8.87;81.26
69879;BME280;57161;43.136;24.706;2022-11-11T02:00:03;100353.28;;;8.86;81.22
69879;BME280;57161;43.136;24.706;2022-11-11T02:02:42;100359.13;;;8.99;80.99
69879;BME280;57161;43.136;24.706;2022-11-11T02:05:11;100353.53;;;9.05;80.94
69879;BME280;57161;43.136;24.706;2022-11-11T02:08:02;100365.22;;;9.20;80.76
69879;BME280;57161;43.136;24.706;2022-11-11T02:10:31;100342.66;;;9.13;80.30
69879;BME280;57161;43.136;24.706;2022-11-11T02:12:57;100359.41;;;9.29;80.18
69879;BME280;57161;43.136;24.706;2022-11-11T02:15:41;100360.91;;;9.36;79.98
69879;BME280;57161;43.136;24.706;2022-11-11T02:18:06;100355.84;;;9.29;79.93
69879;BME280;57161;43.136;24.706;2022-11-11T02:20:37;100352.56;;;9.30;80.04
69879;BME280;57161;43.136;24.706;2022-11-11T02:23:39;100357.38;;;9.30;80.05
69879;BME280;57161;43.136;24.706;2022-11-11T02:26:08;100370.28;;;9.22;80.00
69879;BME280;57161;43.136;24.706;2022-11-11T02:28:36;100365.50;;;9.28;79.77
69879;BME280;57161;43.136;24.706;2022-11-11T02:31:02;100372.81;;;9.25;80.04
69879;BME280;57161;43.136;24.706;2022-11-11T02:33:27;100378.66;;;9.33;79.72
69879;BME280;57161;43.136;24.706;2022-11-11T02:35:54;100375.09;;;9.27;79.90
69879;BME280;57161;43.136;24.706;2022-11-11T02:38:21;100356.84;;;9.15;80.20
69879;BME280;57161;43.136;24.706;2022-11-11T02:40:47;100379.44;;;9.33;79.89
69879;BME280;57161;43.136;24.706;2022-11-11T02:43:32;100368.53;;;9.30;79.80
69879;BME280;57161;43.136;24.706;2022-11-11T02:45:59;100371.56;;;9.32;79.79
69879;BME280;57161;43.136;24.706;2022-11-11T02:48:25;100358.66;;;9.29;79.68
69879;BME280;57161;43.136;24.706;2022-11-11T02:50:50;100367.50;;;9.33;80.05
69879;BME280;57161;43.136;24.706;2022-11-11T02:53:16;100353.56;;;9.27;79.54
69879;BME280;57161;43.136;24.706;2022-11-11T02:55:41;100369.78;;;9.40;79.67
69879;BME280;57161;43.136;24.706;2022-11-11T02:58:07;100371.56;;;9.38;79.80
69879;BME280;57161;43.136;24.706;2022-11-11T03:00:33;100374.63;;;9.45;79.40
69879;BME280;57161;43.136;24.706;2022-11-11T03:02:59;100374.63;;;9.45;78.64
69879;BME280;57161;43.136;24.706;2022-11-11T03:05:24;100373.84;;;9.33;79.02
69879;BME280;57161;43.136;24.706;2022-11-11T03:07:49;100370.53;;;9.35;79.43
69879;BME280;57161;43.136;24.706;2022-11-11T03:10:15;100371.28;;;9.41;79.52
69879;BME280;57161;43.136;24.706;2022-11-11T03:12:41;100369.53;;;9.49;78.80
69879;BME280;57161;43.136;24.706;2022-11-11T03:15:06;100354.81;;;9.43;79.13
69879;BME280;57161;43.136;24.706;2022-11-11T03:17:32;100371.28;;;9.52;78.98
69879;BME280;57161;43.136;24.706;2022-11-11T03:20:08;100384.50;;;9.52;79.41
69879;BME280;57161;43.136;24.706;2022-11-11T03:23:07;100387.03;;;9.61;79.44
69879;BME280;57161;43.136;24.706;2022-11-11T03:25:37;100375.84;;;9.55;79.58
69879;BME280;57161;43.136;24.706;2022-11-11T03:28:13;100382.69;;;9.71;79.25
69879;BME280;57161;43.136;24.706;2022-11-11T03:30:41;100382.69;;;9.71;79.32
69879;BME280;57161;43.136;24.706;2022-11-11T03:33:07;100367.72;;;9.74;79.06
69879;BME280;57161;43.136;24.706;2022-11-11T03:35:34;100369.50;;;9.72;78.71
69879;BME280;57161;43.136;24.706;2022-11-11T03:38:00;100386.47;;;9.90;78.53
69879;BME280;57161;43.136;24.706;2022-11-11T03:40:49;100381.63;;;9.91;78.44
69879;BME280;57161;43.136;24.706;2022-11-11T03:43:16;100383.94;;;9.92;77.82
69879;BME280;57161;43.136;24.706;2022-11-11T03:45:43;100386.22;;;9.94;77.46
69879;BME280;57161;43.136;24.706;2022-11-11T03:48:09;100373.53;;;9.82;77.83
69879;BME280;57161;43.136;24.706;2022-11-11T03:50:35;100364.16;;;9.79;77.57
69879;BME280;57161;43.136;24.706;2022-11-11T03:53:00;100373.03;;;9.83;77.21
69879;BME280;57161;43.136;24.706;2022-11-11T03:55:27;100384.69;;;9.93;77.21
69879;BME280;57161;43.136;24.706;2022-11-11T03:57:53;100380.38;;;9.86;77.38
69879;BME280;57161;43.136;24.706;2022-11-11T04:00:23;100361.41;;;9.62;76.92
69879;BME280;57161;43.136;24.706;2022-11-11T04:02:49;100358.09;;;9.64;77.28
69879;BME280;57161;43.136;24.706;2022-11-11T04:05:33;100381.94;;;9.59;78.06
69879;BME280;57161;43.136;24.706;2022-11-11T04:08:18;100376.88;;;9.63;78.55
69879;BME280;57161;43.136;24.706;2022-11-11T04:11:09;100370.78;;;9.65;78.68
69879;BME280;57161;43.136;24.706;2022-11-11T04:13:36;100370.00;;;9.70;79.04
69879;BME280;57161;43.136;24.706;2022-11-11T04:16:21;100378.63;;;9.78;79.00
69879;BME280;57161;43.136;24.706;2022-11-11T04:18:46;100358.06;;;9.75;79.17
69879;BME280;57161;43.136;24.706;2022-11-11T04:21:30;100367.94;;;9.93;78.97
69879;BME280;57161;43.136;24.706;2022-11-11T04:24:18;100378.84;;;9.97;78.92
69879;BME280;57161;43.136;24.706;2022-11-11T04:27:05;100376.81;;;9.97;78.82
69879;BME280;57161;43.136;24.706;2022-11-11T04:29:31;100366.66;;;9.88;78.94
69879;BME280;57161;43.136;24.706;2022-11-11T04:31:59;100385.19;;;9.97;78.53
69879;BME280;57161;43.136;24.706;2022-11-11T04:34:51;100390.25;;;10.04;77.84
69879;BME280;57161;43.136;24.706;2022-11-11T04:37:17;100376.56;;;9.95;77.71
69879;BME280;57161;43.136;24.706;2022-11-11T04:39:43;100391.25;;;10.01;77.20
69879;BME280;57161;43.136;24.706;2022-11-11T04:42:38;100372.25;;;9.88;77.09
69879;BME280;57161;43.136;24.706;2022-11-11T04:45:05;100393.53;;;10.03;76.79
69879;BME280;57161;43.136;24.706;2022-11-11T04:48:04;100394.06;;;10.01;76.40
69879;BME280;57161;43.136;24.706;2022-11-11T04:50:34;100398.63;;;9.99;75.90
69879;BME280;57161;43.136;24.706;2022-11-11T04:53:01;100393.06;;;9.99;76.04
69879;BME280;57161;43.136;24.706;2022-11-11T04:55:28;100396.34;;;9.97;76.08
69879;BME280;57161;43.136;24.706;2022-11-11T04:58:12;100393.88;;;9.77;76.34
69879;BME280;57161;43.136;24.706;2022-11-11T05:00:38;100418.94;;;9.88;76.40
69879;BME280;57161;43.136;24.706;2022-11-11T05:03:04;100395.63;;;9.80;76.46
69879;BME280;57161;43.136;24.706;2022-11-11T05:08:36;100411.09;;;9.86;77.05
69879;BME280;57161;43.136;24.706;2022-11-11T05:11:25;100412.13;;;9.83;77.29
69879;BME280;57161;43.136;24.706;2022-11-11T05:13:51;100412.13;;;9.83;77.47
69879;BME280;57161;43.136;24.706;2022-11-11T05:16:39;100422.75;;;9.85;77.69
69879;BME280;57161;43.136;24.706;2022-11-11T05:19:24;100389.03;;;9.66;77.30
69879;BME280;57161;43.136;24.706;2022-11-11T05:24:42;100439.00;;;10.09;77.12
69879;BME280;57161;43.136;24.706;2022-11-11T05:27:26;100401.19;;;9.91;77.14
69879;BME280;57161;43.136;24.706;2022-11-11T05:29:52;100429.81;;;10.08;77.29
69879;BME280;57161;43.136;24.706;2022-11-11T05:32:19;100453.19;;;10.22;76.96
69879;BME280;57161;43.136;24.706;2022-11-11T05:34:44;100441.72;;;10.20;77.18
69879;BME280;57161;43.136;24.706;2022-11-11T05:37:10;100455.72;;;10.31;77.08
69879;BME280;57161;43.136;24.706;2022-11-11T05:39:36;100457.47;;;10.34;77.64
69879;BME280;57161;43.136;24.706;2022-11-11T05:42:02;100457.72;;;10.36;76.89
69879;BME280;57161;43.136;24.706;2022-11-11T05:44:28;100479.03;;;11.08;80.09
69879;BME280;57161;43.136;24.706;2022-11-11T05:46:53;100459.72;;;11.05;78.81
69879;BME280;57161;43.136;24.706;2022-11-11T05:49:18;100477.69;;;11.21;78.08
69879;BME280;57161;43.136;24.706;2022-11-11T05:51:45;100471.78;;;11.30;78.29
69879;BME280;57161;43.136;24.706;2022-11-11T05:54:12;100493.31;;;11.46;77.19
69879;BME280;57161;43.136;24.706;2022-11-11T05:56:37;100496.50;;;11.61;77.63
69879;BME280;57161;43.136;24.706;2022-11-11T05:59:06;100499.25;;;11.67;77.96
69879;BME280;57161;43.136;24.706;2022-11-11T06:01:32;100504.22;;;11.85;77.66
69879;BME280;57161;43.136;24.706;2022-11-11T06:03:58;100512.38;;;11.89;77.60
69879;BME280;57161;43.136;24.706;2022-11-11T06:06:23;100498.53;;;11.96;77.26
69879;BME280;57161;43.136;24.706;2022-11-11T06:08:49;100524.31;;;12.19;76.44
69879;BME280;57161;43.136;24.706;2022-11-11T06:11:14;100523.03;;;12.20;76.45
69879;BME280;57161;43.136;24.706;2022-11-11T06:13:39;100534.19;;;12.26;76.33
69879;BME280;57161;43.136;24.706;2022-11-11T06:16:05;100525.50;;;12.29;76.00
69879;BME280;57161;43.136;24.706;2022-11-11T06:18:31;100530.34;;;12.29;75.72
69879;BME280;57161;43.136;24.706;2022-11-11T06:20:58;100538.13;;;12.42;75.21
69879;BME280;57161;43.136;24.706;2022-11-11T06:23:25;100541.69;;;12.42;75.27
69879;BME280;57161;43.136;24.706;2022-11-11T06:25:51;100543.75;;;12.36;75.14
69879;BME280;57161;43.136;24.706;2022-11-11T06:28:35;100553.88;;;12.45;74.92
69879;BME280;57161;43.136;24.706;2022-11-11T06:31:01;100565.09;;;12.45;74.86
69879;BME280;57161;43.136;24.706;2022-11-11T06:33:27;100556.44;;;12.43;75.28
69879;BME280;57161;43.136;24.706;2022-11-11T06:35:53;100560.56;;;12.36;75.80
69879;BME280;57161;43.136;24.706;2022-11-11T06:38:19;100541.41;;;12.16;75.82
69879;BME280;57161;43.136;24.706;2022-11-11T06:40:44;100523.47;;;12.00;76.22
69879;BME280;57161;43.136;24.706;2022-11-11T06:43:10;100573.91;;;12.30;76.80
69879;BME280;57161;43.136;24.706;2022-11-11T06:45:36;100573.22;;;12.18;77.44
69879;BME280;57161;43.136;24.706;2022-11-11T06:48:02;100573.75;;;12.17;78.12
69879;BME280;57161;43.136;24.706;2022-11-11T06:50:28;100572.13;;;11.97;79.10
69879;BME280;57161;43.136;24.706;2022-11-11T06:52:54;100552.06;;;11.87;79.51
69879;BME280;57161;43.136;24.706;2022-11-11T06:55:20;100570.56;;;12.01;80.36
69879;BME280;57161;43.136;24.706;2022-11-11T06:57:46;100553.63;;;11.88;80.30
69879;BME280;57161;43.136;24.706;2022-11-11T07:00:12;100566.56;;;11.91;80.49
69879;BME280;57161;43.136;24.706;2022-11-11T07:02:38;100566.56;;;11.91;80.36
69879;BME280;57161;43.136;24.706;2022-11-11T07:05:03;100588.25;;;11.85;81.14
69879;BME280;57161;43.136;24.706;2022-11-11T07:07:29;100590.53;;;11.87;81.15
69879;BME280;57161;43.136;24.706;2022-11-11T07:09:55;100591.09;;;11.80;81.38
69879;BME280;57161;43.136;24.706;2022-11-11T07:12:22;100600.78;;;11.79;82.18
69879;BME280;57161;43.136;24.706;2022-11-11T07:14:48;100592.91;;;11.66;82.92
69879;BME280;57161;43.136;24.706;2022-11-11T07:17:13;100605.63;;;11.72;82.97
69879;BME280;57161;43.136;24.706;2022-11-11T07:19:39;100606.69;;;11.64;83.82
69879;BME280;57161;43.136;24.706;2022-11-11T07:22:04;100600.59;;;11.60;83.54
69879;BME280;57161;43.136;24.706;2022-11-11T07:24:30;100613.56;;;11.63;83.97
69879;BME280;57161;43.136;24.706;2022-11-11T07:26:56;100621.69;;;11.66;84.53
69879;BME280;57161;43.136;24.706;2022-11-11T07:29:23;100620.16;;;11.65;84.67
69879;BME280;57161;43.136;24.706;2022-11-11T07:31:49;100629.06;;;11.64;84.42
69879;BME280;57161;43.136;24.706;2022-11-11T07:34:15;100626.09;;;11.51;85.20
69879;BME280;57161;43.136;24.706;2022-11-11T07:36:41;100629.13;;;11.53;85.08
69879;BME280;57161;43.136;24.706;2022-11-11T07:39:06;100612.88;;;11.46;85.54
69879;BME280;57161;43.136;24.706;2022-11-11T07:41:31;100615.72;;;11.34;86.15
69879;BME280;57161;43.136;24.706;2022-11-11T07:43:57;100641.09;;;11.53;86.00
69879;BME280;57161;43.136;24.706;2022-11-11T07:46:22;100640.84;;;11.51;85.89
69879;BME280;57161;43.136;24.706;2022-11-11T07:48:48;100633.44;;;11.54;85.84
69879;BME280;57161;43.136;24.706;2022-11-11T07:51:13;100626.16;;;11.39;85.82
69879;BME280;57161;43.136;24.706;2022-11-11T07:53:39;100649.25;;;11.51;85.73
69879;BME280;57161;43.136;24.706;2022-11-11T07:56:04;100633.53;;;11.42;85.81
69879;BME280;57161;43.136;24.706;2022-11-11T07:58:30;100651.28;;;11.51;85.36
69879;BME280;57161;43.136;24.706;2022-11-11T08:00:58;100650.53;;;11.50;85.94
69879;BME280;57161;43.136;24.706;2022-11-11T08:03:24;100656.88;;;11.51;86.06
69879;BME280;57161;43.136;24.706;2022-11-11T08:05:50;100646.69;;;11.53;85.97
69879;BME280;57161;43.136;24.706;2022-11-11T08:08:15;100646.69;;;11.53;85.37
69879;BME280;57161;43.136;24.706;2022-11-11T08:10:41;100646.00;;;11.41;85.45
69879;BME280;57161;43.136;24.706;2022-11-11T08:13:09;100631.75;;;11.39;85.38
69879;BME280;57161;43.136;24.706;2022-11-11T08:15:54;100648.53;;;11.39;86.04
69879;BME280;57161;43.136;24.706;2022-11-11T08:18:20;100661.72;;;11.56;85.41
69879;BME280;57161;43.136;24.706;2022-11-11T08:20:45;100654.88;;;11.46;85.47
69879;BME280;57161;43.136;24.706;2022-11-11T08:23:11;100663.75;;;11.50;85.40
69879;BME280;57161;43.136;24.706;2022-11-11T08:25:38;100617.03;;;11.22;85.36
69879;BME280;57161;43.136;24.706;2022-11-11T08:28:05;100667.03;;;11.59;84.83
69879;BME280;57161;43.136;24.706;2022-11-11T08:30:31;100660.16;;;11.55;85.24
69879;BME280;57161;43.136;24.706;2022-11-11T08:32:58;100666.75;;;11.63;85.13
69879;BME280;57161;43.136;24.706;2022-11-11T08:35:24;100632.56;;;11.29;84.62
69879;BME280;57161;43.136;24.706;2022-11-11T08:37:49;100676.19;;;11.54;85.36
69879;BME280;57161;43.136;24.706;2022-11-11T08:40:15;100671.63;;;11.57;84.93
69879;BME280;57161;43.136;24.706;2022-11-11T08:42:41;100674.44;;;11.57;85.14
69879;BME280;57161;43.136;24.706;2022-11-11T08:45:07;100665.03;;;11.49;84.50
69879;BME280;57161;43.136;24.706;2022-11-11T08:47:34;100687.13;;;11.63;84.57
69879;BME280;57161;43.136;24.706;2022-11-11T08:50:00;100688.09;;;11.71;84.17
69879;BME280;57161;43.136;24.706;2022-11-11T08:52:25;100691.66;;;11.72;83.86
69879;BME280;57161;43.136;24.706;2022-11-11T08:54:51;100674.47;;;11.46;83.98
69879;BME280;57161;43.136;24.706;2022-11-11T08:57:16;100683.34;;;11.55;83.90
69879;BME280;57161;43.136;24.706;2022-11-11T08:59:42;100699.06;;;11.64;84.01
69879;BME280;57161;43.136;24.706;2022-11-11T09:02:11;100702.13;;;11.66;84.20
69879;BME280;57161;43.136;24.706;2022-11-11T09:04:37;100675.97;;;11.47;84.36
69879;BME280;57161;43.136;24.706;2022-11-11T09:07:03;100703.16;;;11.63;84.69
69879;BME280;57161;43.136;24.706;2022-11-11T09:09:29;100702.16;;;11.60;84.45
69879;BME280;57161;43.136;24.706;2022-11-11T09:11:54;100683.09;;;11.48;85.23
69879;BME280;57161;43.136;24.706;2022-11-11T09:14:20;100693.75;;;11.55;84.75
69879;BME280;57161;43.136;24.706;2022-11-11T09:16:45;100683.59;;;11.52;85.44
69879;BME280;57161;43.136;24.706;2022-11-11T09:19:11;100704.16;;;11.65;84.91
69879;BME280;57161;43.136;24.706;2022-11-11T09:21:36;100694.47;;;11.66;84.67
69879;BME280;57161;43.136;24.706;2022-11-11T09:24:02;100706.91;;;11.71;84.67
69879;BME280;57161;43.136;24.706;2022-11-11T09:26:27;100709.72;;;11.71;84.91
69879;BME280;57161;43.136;24.706;2022-11-11T09:28:53;100705.91;;;11.80;85.30
69879;BME280;57161;43.136;24.706;2022-11-11T09:31:18;100683.00;;;11.70;84.74
69879;BME280;57161;43.136;24.706;2022-11-11T09:33:44;100689.88;;;11.80;84.31
69879;BME280;57161;43.136;24.706;2022-11-11T09:36:09;100671.84;;;11.64;84.58
69879;BME280;57161;43.136;24.706;2022-11-11T09:38:35;100709.41;;;11.91;85.06
69879;BME280;57161;43.136;24.706;2022-11-11T09:43:59;100695.63;;;11.99;84.30
69879;BME280;57161;43.136;24.706;2022-11-11T09:54:11;100678.63;;;11.86;84.39
69879;BME280;57161;43.136;24.706;2022-11-11T09:56:40;100646.13;;;11.66;84.49
69879;BME280;57161;43.136;24.706;2022-11-11T09:59:16;100675.31;;;11.87;84.62
69879;BME280;57161;43.136;24.706;2022-11-11T10:01:52;100691.06;;;11.96;84.52
69879;BME280;57161;43.136;24.706;2022-11-11T10:07:00;100680.88;;;11.93;84.96
69879;BME280;57161;43.136;24.706;2022-11-11T10:09:53;100690.00;;;11.99;84.93
69879;BME280;57161;43.136;24.706;2022-11-11T10:12:25;100673.25;;;11.93;84.85
69879;BME280;57161;43.136;24.706;2022-11-11T10:14:55;100673.25;;;11.93;84.88
69879;BME280;57161;43.136;24.706;2022-11-11T10:17:38;100680.31;;;12.06;85.09
69879;BME280;57161;43.136;24.706;2022-11-11T10:23:14;100679.75;;;12.13;84.92
69879;BME280;57161;43.136;24.706;2022-11-11T10:25:54;100683.78;;;12.17;84.81
69879;BME280;57161;43.136;24.706;2022-11-11T10:28:21;100683.78;;;12.17;84.67
69879;BME280;57161;43.136;24.706;2022-11-11T10:30:49;100678.22;;;12.12;84.57
69879;BME280;57161;43.136;24.706;2022-11-11T10:33:26;100657.63;;;12.03;84.44
69879;BME280;57161;43.136;24.706;2022-11-11T10:35:54;100671.06;;;12.16;83.82
69879;BME280;57161;43.136;24.706;2022-11-11T10:41:25;100676.63;;;12.22;84.10
69879;BME280;57161;43.136;24.706;2022-11-11T10:43:53;100675.66;;;12.14;84.03
69879;BME280;57161;43.136;24.706;2022-11-11T10:46:29;100657.31;;;12.13;84.64
69879;BME280;57161;43.136;24.706;2022-11-11T10:49:07;100638.03;;;12.03;84.56
69879;BME280;57161;43.136;24.706;2022-11-11T10:51:50;100675.81;;;12.27;84.78
69879;BME280;57161;43.136;24.706;2022-11-11T10:54:23;100679.63;;;12.29;84.58
69879;BME280;57161;43.136;24.706;2022-11-11T10:59:25;100683.00;;;12.22;86.40
69879;BME280;57161;43.136;24.706;2022-11-11T11:01:57;100686.06;;;12.19;86.46
69879;BME280;57161;43.136;24.706;2022-11-11T11:04:30;100684.53;;;12.18;86.91
69879;BME280;57161;43.136;24.706;2022-11-11T11:07:00;100682.03;;;12.14;87.15
69879;BME280;57161;43.136;24.706;2022-11-11T11:12:19;100670.28;;;12.21;86.80
69879;BME280;57161;43.136;24.706;2022-11-11T11:14:53;100677.88;;;12.26;86.81
69879;BME280;57161;43.136;24.706;2022-11-11T11:17:23;100674.78;;;12.30;86.73
69879;BME280;57161;43.136;24.706;2022-11-11T11:20:14;100640.50;;;12.13;86.67
69879;BME280;57161;43.136;24.706;2022-11-11T11:25:10;100684.31;;;11.63;86.14
69879;BME280;57161;43.136;24.706;2022-11-11T11:27:36;100679.50;;;11.53;87.54
69879;BME280;57161;43.136;24.706;2022-11-11T11:32:38;100668.09;;;11.45;88.00
69879;BME280;57161;43.136;24.706;2022-11-11T11:35:07;100683.88;;;11.48;88.20
69879;BME280;57161;43.136;24.706;2022-11-11T11:37:47;100675.75;;;11.45;88.09
69879;BME280;57161;43.136;24.706;2022-11-11T11:40:13;100671.19;;;11.36;88.72
69879;BME280;57161;43.136;24.706;2022-11-11T11:42:39;100675.44;;;11.54;88.46
69879;BME280;57161;43.136;24.706;2022-11-11T11:51:48;100671.63;;;11.57;88.28
69879;BME280;57161;43.136;24.706;2022-11-11T11:56:39;100683.66;;;11.40;90.07
69879;BME280;57161;43.136;24.706;2022-11-11T12:01:50;100678.81;;;11.41;90.64
69879;BME280;57161;43.136;24.706;2022-11-11T12:04:58;100680.06;;;11.46;90.61
69879;BME280;57161;43.136;24.706;2022-11-11T12:10:43;100688.22;;;11.43;89.78
69879;BME280;57161;43.136;24.706;2022-11-11T12:15:42;100670.66;;;11.43;88.33
69879;BME280;57161;43.136;24.706;2022-11-11T12:21:14;100680.78;;;11.52;89.09
69879;BME280;57161;43.136;24.706;2022-11-11T12:31:52;100658.28;;;11.16;90.50
69879;BME280;57161;43.136;24.706;2022-11-11T12:37:19;100675.25;;;11.40;90.21
69879;BME280;57161;43.136;24.706;2022-11-11T12:40:21;100682.34;;;11.47;89.62
69879;BME280;57161;43.136;24.706;2022-11-11T12:45:25;100682.31;;;11.53;90.06
69879;BME280;57161;43.136;24.706;2022-11-11T12:48:53;100683.06;;;11.53;89.97
69879;BME280;57161;43.136;24.706;2022-11-11T12:51:31;100685.41;;;11.43;89.89
69879;BME280;57161;43.136;24.706;2022-11-11T12:54:18;100683.38;;;11.44;89.66
69879;BME280;57161;43.136;24.706;2022-11-11T13:02:31;100665.34;;;11.39;88.69
69879;BME280;57161;43.136;24.706;2022-11-11T13:05:09;100692.78;;;11.47;88.95
69879;BME280;57161;43.136;24.706;2022-11-11T13:10:29;100692.06;;;11.29;89.60
69879;BME280;57161;43.136;24.706;2022-11-11T13:15:36;100684.25;;;11.00;90.54
69879;BME280;57161;43.136;24.706;2022-11-11T13:18:10;100676.91;;;10.91;90.69
69879;BME280;57161;43.136;24.706;2022-11-11T13:23:11;100691.63;;;11.03;90.88
69879;BME280;57161;43.136;24.706;2022-11-11T13:25:40;100703.06;;;10.99;91.09
69879;BME280;57161;43.136;24.706;2022-11-11T13:30:44;100708.91;;;11.07;91.02
69879;BME280;57161;43.136;24.706;2022-11-11T13:33:19;100706.66;;;10.94;91.54
69879;BME280;57161;43.136;24.706;2022-11-11T13:35:53;100712.22;;;11.00;91.44
69879;BME280;57161;43.136;24.706;2022-11-11T13:38:36;100707.91;;;10.99;91.50
69879;BME280;57161;43.136;24.706;2022-11-11T13:41:05;100710.19;;;11.00;91.07
69879;BME280;57161;43.136;24.706;2022-11-11T13:46:01;100689.09;;;10.94;91.17
69879;BME280;57161;43.136;24.706;2022-11-11T13:48:45;100709.69;;;11.07;90.64
69879;BME280;57161;43.136;24.706;2022-11-11T13:53:49;100703.09;;;10.94;91.18
69879;BME280;57161;43.136;24.706;2022-11-11T13:56:22;100717.81;;;11.11;91.05
69879;BME280;57161;43.136;24.706;2022-11-11T13:58:50;100724.69;;;11.10;91.01
69879;BME280;57161;43.136;24.706;2022-11-11T14:01:16;100712.72;;;11.04;91.31
69879;BME280;57161;43.136;24.706;2022-11-11T14:21:52;100710.97;;;10.84;91.02
69879;BME280;57161;43.136;24.706;2022-11-11T14:29:38;100712.25;;;10.66;91.96
69879;BME280;57161;43.136;24.706;2022-11-11T14:35:25;100696.97;;;10.56;91.84
69879;BME280;57161;43.136;24.706;2022-11-11T14:40:40;100714.28;;;10.49;93.51
69879;BME280;57161;43.136;24.706;2022-11-11T14:43:38;100728.75;;;10.53;93.63
69879;BME280;57161;43.136;24.706;2022-11-11T14:46:06;100725.94;;;10.53;93.58
69879;BME280;57161;43.136;24.706;2022-11-11T14:54:03;100716.81;;;10.41;94.19
69879;BME280;57161;43.136;24.706;2022-11-11T14:56:30;100724.19;;;10.50;93.94
69879;BME280;57161;43.136;24.706;2022-11-11T14:59:04;100723.66;;;10.40;93.24
69879;BME280;57161;43.136;24.706;2022-11-11T15:01:31;100737.63;;;10.51;93.31
69879;BME280;57161;43.136;24.706;2022-11-11T15:04:01;100731.28;;;10.45;93.06
69879;BME280;57161;43.136;24.706;2022-11-11T15:06:34;100736.63;;;10.49;92.79
69879;BME280;57161;43.136;24.706;2022-11-11T15:20:23;100741.72;;;10.78;91.95
69879;BME280;57161;43.136;24.706;2022-11-11T15:23:02;100747.31;;;10.90;91.70
69879;BME280;57161;43.136;24.706;2022-11-11T15:39:05;100738.94;;;11.06;89.68